Time;durP1;ratioP1;P1;durP2;ratioP2;P2;SDS_P1;SDS_P2;PMS_P1;PMS_P2;Temp;Humidity;BMP_temperature;BMP_pressure;BME280_temperature;BME280_humidity;BME280_pressure;Samples;Min_cycle;Max_cycle;Signal;HPM_P1;HPM_P2
2023/09/22 00:01:57;;;;;;;4.50;3.35;;;20.70;95.90;;;;;;6240014;23;20393;-70
2023/09/22 00:04:44;;;;;;;5.15;3.30;;;20.70;96.00;;;;;;6218966;23;20210;-70
2023/09/22 00:07:30;;;;;;;7.78;3.50;;;20.70;96.00;;;;;;6239790;23;20016;-70
2023/09/22 00:10:17;;;;;;;10.50;6.03;;;20.70;96.10;;;;;;6241122;23;20011;-69
2023/09/22 00:13:04;;;;;;;11.88;4.75;;;20.70;96.10;;;;;;6238255;23;20523;-70
2023/09/22 00:15:50;;;;;;;9.95;5.47;;;20.60;96.20;;;;;;6205134;23;20038;-69
2023/09/22 00:18:36;;;;;;;11.63;5.22;;;20.60;96.20;;;;;;6239908;22;20016;-69
2023/09/22 00:21:22;;;;;;;5.07;4.25;;;20.60;96.30;;;;;;6241242;22;20203;-70
2023/09/22 00:24:08;;;;;;;9.73;4.45;;;20.60;96.30;;;;;;6239048;23;20024;-70
2023/09/22 00:26:53;;;;;;;5.60;3.83;;;20.60;96.40;;;;;;6239731;23;20092;-70
2023/09/22 00:29:39;;;;;;;7.82;3.60;;;20.70;96.40;;;;;;6238889;23;20012;-69
2023/09/22 00:32:25;;;;;;;7.70;4.45;;;20.60;96.40;;;;;;6240980;22;20514;-70
2023/09/22 00:35:14;;;;;;;7.28;4.13;;;20.70;96.50;;;;;;6242135;22;20344;-70
2023/09/22 00:38:01;;;;;;;7.07;3.95;;;20.70;96.50;;;;;;6240198;22;20341;-70
2023/09/22 00:40:47;;;;;;;6.70;3.75;;;20.70;96.50;;;;;;6239627;23;20446;-69
2023/09/22 00:43:32;;;;;;;6.72;4.13;;;20.70;96.50;;;;;;6237689;23;20028;-70
2023/09/22 00:46:23;;;;;;;6.97;4.38;;;20.70;96.50;;;;;;6238808;23;20053;-70
2023/09/22 00:49:10;;;;;;;6.45;3.80;;;20.70;96.60;;;;;;6239531;23;20106;-70
2023/09/22 00:51:56;;;;;;;6.15;3.47;;;20.60;96.60;;;;;;6240963;23;20433;-70
2023/09/22 00:54:42;;;;;;;7.35;3.85;;;20.60;96.60;;;;;;6240126;23;20039;-70
2023/09/22 00:57:28;;;;;;;5.95;3.55;;;20.60;96.70;;;;;;6243393;22;20059;-70
2023/09/22 01:00:16;;;;;;;6.20;3.85;;;20.60;96.70;;;;;;6241065;23;20008;-69
2023/09/22 01:03:03;;;;;;;7.20;3.17;;;20.60;96.80;;;;;;6241610;23;20097;-69
2023/09/22 01:05:50;;;;;;;7.28;3.55;;;20.60;96.80;;;;;;6220960;23;20099;-70
2023/09/22 01:08:36;;;;;;;9.60;3.55;;;20.60;96.80;;;;;;6241526;23;20044;-70
2023/09/22 01:11:22;;;;;;;8.85;3.45;;;20.60;96.90;;;;;;6241835;23;20077;-70
2023/09/22 01:14:08;;;;;;;9.25;3.55;;;20.60;96.90;;;;;;6243677;23;20019;-69
2023/09/22 01:16:54;;;;;;;6.70;3.38;;;20.50;96.90;;;;;;6242207;23;20011;-70
2023/09/22 01:19:42;;;;;;;5.65;3.65;;;20.60;97.00;;;;;;6219301;23;20008;-69
2023/09/22 01:22:28;;;;;;;7.18;3.63;;;20.50;97.00;;;;;;6240380;23;20012;-69
2023/09/22 01:25:14;;;;;;;5.63;3.60;;;20.50;97.00;;;;;;6242683;22;20018;-68
2023/09/22 01:28:00;;;;;;;7.85;4.35;;;20.50;97.10;;;;;;6242657;22;20499;-68
2023/09/22 01:30:47;;;;;;;6.07;4.30;;;20.50;97.10;;;;;;6244216;22;20392;-68
2023/09/22 01:33:33;;;;;;;8.63;4.13;;;20.50;97.10;;;;;;6241626;23;20012;-68
2023/09/22 01:36:19;;;;;;;6.10;4.32;;;20.50;97.20;;;;;;6240634;23;20450;-68
2023/09/22 01:39:08;;;;;;;6.75;3.72;;;20.50;97.20;;;;;;6242471;22;20031;-70
2023/09/22 01:41:54;;;;;;;6.55;4.40;;;20.40;97.30;;;;;;6241133;23;20091;-70
2023/09/22 01:44:40;;;;;;;8.07;4.18;;;20.40;97.30;;;;;;6243116;23;20020;-69
2023/09/22 01:47:26;;;;;;;5.28;3.78;;;20.40;97.40;;;;;;6243294;22;20066;-69
2023/09/22 01:50:12;;;;;;;7.40;4.20;;;20.40;97.40;;;;;;6220804;23;20023;-69
2023/09/22 01:52:58;;;;;;;7.60;4.47;;;20.40;97.50;;;;;;6240089;23;20299;-69
2023/09/22 01:55:46;;;;;;;5.43;4.03;;;20.40;97.60;;;;;;6242425;22;20052;-69
2023/09/22 01:58:32;;;;;;;7.05;4.95;;;20.40;97.60;;;;;;6241142;23;20023;-69
2023/09/22 02:01:18;;;;;;;7.95;4.55;;;20.40;97.70;;;;;;6243658;22;20008;-69
2023/09/22 02:04:05;;;;;;;7.25;4.53;;;20.40;97.70;;;;;;6239837;23;20027;-69
2023/09/22 02:06:51;;;;;;;7.03;4.75;;;20.40;97.80;;;;;;6239651;23;20474;-69
2023/09/22 02:09:37;;;;;;;7.40;4.85;;;20.40;97.80;;;;;;6239873;23;20012;-70
2023/09/22 02:12:23;;;;;;;7.15;4.95;;;20.40;97.90;;;;;;6242356;23;20032;-69
2023/09/22 02:15:09;;;;;;;9.38;5.35;;;20.40;97.90;;;;;;6242205;23;20525;-69
2023/09/22 02:17:56;;;;;;;10.20;4.97;;;20.40;97.90;;;;;;6240461;23;20016;-70
2023/09/22 02:20:43;;;;;;;8.32;5.53;;;20.40;98.00;;;;;;6240550;23;20070;-69
2023/09/22 02:23:29;;;;;;;8.57;5.05;;;20.40;98.00;;;;;;6240283;23;20016;-69
2023/09/22 02:26:15;;;;;;;6.07;4.55;;;20.40;98.00;;;;;;6242142;22;20005;-70
2023/09/22 02:29:00;;;;;;;8.40;5.57;;;20.40;98.10;;;;;;6242982;22;20066;-70
2023/09/22 02:31:46;;;;;;;7.78;5.28;;;20.40;98.10;;;;;;6239296;23;20004;-70
2023/09/22 02:34:33;;;;;;;7.57;5.80;;;20.40;98.10;;;;;;6242429;22;20012;-71
2023/09/22 02:37:20;;;;;;;7.53;4.60;;;20.40;98.10;;;;;;6240684;23;20035;-71
2023/09/22 02:40:07;;;;;;;8.23;4.97;;;20.50;98.10;;;;;;6240277;23;20353;-71
2023/09/22 02:42:53;;;;;;;8.50;5.80;;;20.50;98.20;;;;;;6238696;23;20012;-70
2023/09/22 02:45:40;;;;;;;7.88;4.95;;;20.50;98.20;;;;;;6239084;23;20012;-71
2023/09/22 02:48:26;;;;;;;7.55;4.88;;;20.50;98.20;;;;;;6240014;23;20039;-70
2023/09/22 02:51:12;;;;;;;5.97;4.38;;;20.50;98.20;;;;;;6241606;23;20545;-71
2023/09/22 02:53:58;;;;;;;7.82;5.07;;;20.50;98.20;;;;;;6240709;22;20631;-70
2023/09/22 02:56:44;;;;;;;6.50;4.53;;;20.60;98.20;;;;;;6240339;22;20099;-70
2023/09/22 02:59:30;;;;;;;9.38;4.85;;;20.60;98.40;;;;;;6242526;23;20012;-71
2023/09/22 03:02:17;;;;;;;6.90;4.55;;;20.60;98.20;;;;;;6238013;23;20319;-69
2023/09/22 03:05:08;;;;;;;6.22;4.65;;;20.60;98.20;;;;;;6239255;23;20345;-69
2023/09/22 03:07:55;;;;;;;6.13;4.30;;;20.60;98.20;;;;;;6240396;23;20015;-70
2023/09/22 03:10:40;;;;;;;5.88;4.18;;;20.60;98.20;;;;;;6240259;23;20594;-71
2023/09/22 03:13:26;;;;;;;5.82;4.20;;;20.60;98.20;;;;;;6241777;22;20031;-70
2023/09/22 03:16:12;;;;;;;7.43;4.78;;;20.70;98.20;;;;;;6238941;23;20016;-71
2023/09/22 03:18:58;;;;;;;10.00;4.32;;;20.70;98.20;;;;;;6241442;22;20008;-70
2023/09/22 03:21:44;;;;;;;6.82;4.18;;;20.70;98.20;;;;;;6240563;23;20205;-70
2023/09/22 03:24:30;;;;;;;6.65;3.65;;;20.70;98.20;;;;;;6240964;23;20319;-70
2023/09/22 03:27:16;;;;;;;4.40;3.40;;;20.70;98.20;;;;;;6241545;23;20353;-70
2023/09/22 03:30:05;;;;;;;4.82;3.63;;;20.70;98.20;;;;;;6240461;23;20357;-71
2023/09/22 03:32:52;;;;;;;5.97;4.00;;;20.70;98.30;;;;;;6238074;23;20016;-70
2023/09/22 03:35:38;;;;;;;4.60;3.53;;;20.70;98.30;;;;;;6240013;23;20016;-69
2023/09/22 03:38:25;;;;;;;5.00;2.88;;;20.70;98.30;;;;;;6239402;23;20024;-70
2023/09/22 03:41:12;;;;;;;3.95;3.13;;;20.80;98.40;;;;;;6239314;23;20102;-70
2023/09/22 03:43:58;;;;;;;4.32;2.78;;;20.70;98.50;;;;;;6238508;23;20310;-69
2023/09/22 03:46:44;;;;;;;4.00;2.08;;;20.80;98.60;;;;;;6242685;22;20085;-69
2023/09/22 03:49:30;;;;;;;3.75;2.47;;;20.80;98.70;;;;;;6242919;22;20090;-72
2023/09/22 03:52:16;;;;;;;2.97;1.95;;;20.80;98.80;;;;;;6239499;23;20004;-71
2023/09/22 03:55:03;;;;;;;3.03;1.80;;;20.80;98.90;;;;;;6239813;22;20012;-68
2023/09/22 03:57:49;;;;;;;2.58;1.70;;;20.80;98.80;;;;;;6240315;23;20078;-69
2023/09/22 04:00:35;;;;;;;2.28;1.58;;;20.70;98.70;;;;;;6239440;23;20291;-68
2023/09/22 04:03:23;;;;;;;2.25;1.48;;;20.70;98.80;;;;;;6238810;23;20016;-69
2023/09/22 04:06:09;;;;;;;5.68;1.77;;;20.60;98.90;;;;;;6237567;23;20414;-69
2023/09/22 04:08:56;;;;;;;3.00;1.60;;;20.60;98.90;;;;;;6238851;23;20039;-69
2023/09/22 04:11:42;;;;;;;2.30;1.45;;;20.60;99.00;;;;;;6240903;23;20008;-69
2023/09/22 04:14:28;;;;;;;1.35;1.17;;;20.60;99.10;;;;;;6238395;23;20030;-69
2023/09/22 04:17:14;;;;;;;1.45;1.05;;;20.60;99.20;;;;;;6240578;23;20004;-70
2023/09/22 04:20:01;;;;;;;3.65;1.55;;;20.50;99.20;;;;;;6241325;22;20373;-71
2023/09/22 04:22:46;;;;;;;2.88;1.67;;;20.50;99.30;;;;;;6239877;23;20036;-69
2023/09/22 04:25:36;;;;;;;2.33;1.77;;;20.40;99.40;;;;;;6238667;23;20480;-69
2023/09/22 04:28:25;;;;;;;4.13;1.92;;;20.40;99.60;;;;;;6217309;23;20346;-69
2023/09/22 04:31:12;;;;;;;3.28;1.50;;;20.40;99.70;;;;;;6240218;23;20019;-72
2023/09/22 04:33:58;;;;;;;3.88;1.50;;;20.30;99.80;;;;;;6239068;23;20070;-72
2023/09/22 04:36:44;;;;;;;2.97;1.17;;;20.30;99.90;;;;;;6240665;22;20008;-71
2023/09/22 04:39:34;;;;;;;3.33;1.92;;;20.20;99.90;;;;;;6237461;23;20020;-72
2023/09/22 04:42:22;;;;;;;3.80;1.75;;;20.20;99.90;;;;;;6239665;23;20008;-72
2023/09/22 04:45:09;;;;;;;3.40;1.90;;;20.10;99.90;;;;;;6239700;23;20034;-77
2023/09/22 04:47:55;;;;;;;1.98;1.30;;;20.10;99.90;;;;;;6239253;23;20014;-71
2023/09/22 04:50:42;;;;;;;5.80;1.95;;;20.10;99.90;;;;;;6239056;23;20016;-77
2023/09/22 04:53:28;;;;;;;3.10;1.40;;;20.00;99.90;;;;;;6239554;23;20020;-70
2023/09/22 04:56:14;;;;;;;3.90;1.30;;;20.00;99.90;;;;;;6239616;22;20077;-73
2023/09/22 04:59:00;;;;;;;2.30;1.40;;;20.00;99.90;;;;;;6240421;22;20078;-72
2023/09/22 05:01:46;;;;;;;1.58;1.30;;;20.00;99.90;;;;;;6240041;23;20632;-73
2023/09/22 05:04:33;;;;;;;2.42;1.50;;;20.00;99.90;;;;;;6239069;23;20394;-73
2023/09/22 05:07:19;;;;;;;4.18;1.38;;;19.90;99.90;;;;;;6238519;23;20413;-73
2023/09/22 05:10:06;;;;;;;2.70;1.45;;;19.90;99.90;;;;;;6241427;22;20012;-74
2023/09/22 05:12:52;;;;;;;3.70;1.95;;;19.90;99.90;;;;;;6240428;23;20023;-74
2023/09/22 05:15:41;;;;;;;3.67;2.20;;;19.90;99.90;;;;;;6239947;23;20540;-74
2023/09/22 05:18:27;;;;;;;3.72;1.60;;;19.80;99.90;;;;;;6237372;23;20015;-74
2023/09/22 05:21:13;;;;;;;4.97;1.60;;;19.80;99.90;;;;;;6241620;22;20323;-74
2023/09/22 05:23:59;;;;;;;2.25;1.35;;;19.80;99.90;;;;;;6241625;23;20386;-74
2023/09/22 05:26:45;;;;;;;2.08;1.40;;;19.80;99.90;;;;;;6240195;23;20466;-74
2023/09/22 05:29:31;;;;;;;9.30;1.65;;;19.80;99.90;;;;;;6238380;23;20373;-74
2023/09/22 05:32:18;;;;;;;2.05;1.30;;;19.80;99.90;;;;;;6239810;23;20008;-74
2023/09/22 05:35:05;;;;;;;2.30;1.50;;;19.80;99.90;;;;;;6240175;23;20028;-74
2023/09/22 05:37:52;;;;;;;2.47;1.35;;;19.80;99.90;;;;;;6240114;23;20095;-73
2023/09/22 05:40:38;;;;;;;2.58;1.40;;;19.80;99.90;;;;;;6240413;23;20027;-73
2023/09/22 05:43:24;;;;;;;2.78;1.50;;;19.80;99.90;;;;;;6241378;23;20016;-72
2023/09/22 05:46:10;;;;;;;3.42;1.80;;;19.80;99.90;;;;;;6242427;23;20442;-72
2023/09/22 05:48:57;;;;;;;2.63;1.60;;;19.80;99.90;;;;;;6242594;23;20015;-72
2023/09/22 05:51:44;;;;;;;2.58;1.67;;;19.80;99.90;;;;;;6240804;23;20011;-73
2023/09/22 05:54:30;;;;;;;2.42;1.58;;;19.80;99.90;;;;;;6242332;23;20370;-72
2023/09/22 05:57:16;;;;;;;2.95;1.65;;;19.80;99.90;;;;;;6218700;23;20019;-73
2023/09/22 06:00:15;;;;;;;2.30;1.50;;;19.80;99.90;;;;;;6241644;23;20012;-72
2023/09/22 06:03:01;;;;;;;5.88;1.50;;;19.80;99.90;;;;;;6219286;23;20054;-72
2023/09/22 06:05:49;;;;;;;6.30;2.03;;;19.80;99.90;;;;;;6217275;23;20016;-72
2023/09/22 06:08:37;;;;;;;2.92;1.55;;;19.80;99.90;;;;;;6241610;23;20043;-72
2023/09/22 06:11:23;;;;;;;2.85;1.75;;;19.80;99.90;;;;;;6243050;23;20341;-73
2023/09/22 06:14:09;;;;;;;2.45;1.40;;;19.80;99.90;;;;;;6240586;23;20345;-72
2023/09/22 06:16:55;;;;;;;2.67;1.67;;;19.80;99.90;;;;;;6243187;22;20004;-73
2023/09/22 06:19:41;;;;;;;3.30;1.50;;;19.80;99.90;;;;;;6218243;23;20012;-73
2023/09/22 06:22:27;;;;;;;2.63;1.48;;;19.80;99.90;;;;;;6240363;23;20445;-72
2023/09/22 06:25:13;;;;;;;5.35;1.60;;;19.90;99.90;;;;;;6239932;23;20446;-69
2023/09/22 06:27:59;;;;;;;3.38;1.58;;;19.90;99.90;;;;;;6221614;23;20070;-73
2023/09/22 06:30:46;;;;;;;4.70;1.55;;;19.90;99.90;;;;;;6240330;23;20019;-72
2023/09/22 06:33:33;;;;;;;3.05;1.48;;;20.00;99.90;;;;;;6240564;23;20012;-72
2023/09/22 06:36:19;;;;;;;1.90;1.35;;;20.00;99.90;;;;;;6241770;23;20008;-72
2023/09/22 06:39:07;;;;;;;3.17;1.50;;;20.00;99.90;;;;;;6241278;23;20039;-72
2023/09/22 06:41:54;;;;;;;1.95;1.45;;;20.10;99.90;;;;;;6240888;23;20084;-73
2023/09/22 06:44:40;;;;;;;2.30;1.40;;;20.10;99.90;;;;;;6239905;23;20162;-73
2023/09/22 06:47:26;;;;;;;2.03;1.40;;;20.10;99.90;;;;;;6242257;23;20009;-72
2023/09/22 06:50:11;;;;;;;4.18;1.50;;;20.10;99.90;;;;;;6241929;23;20094;-73
2023/09/22 06:52:58;;;;;;;1.98;1.30;;;20.10;99.90;;;;;;6240901;22;20032;-70
2023/09/22 06:55:44;;;;;;;4.93;1.50;;;20.10;99.90;;;;;;6218243;23;20465;-71
2023/09/22 06:58:31;;;;;;;5.50;1.60;;;20.10;99.90;;;;;;6241701;23;20438;-78
2023/09/22 07:01:17;;;;;;;2.75;1.65;;;20.10;99.90;;;;;;6240791;23;20012;-77
2023/09/22 07:04:08;;;;;;;3.53;1.30;;;20.20;99.90;;;;;;6218208;23;20094;-77
2023/09/22 07:06:54;;;;;;;1.42;1.10;;;20.20;99.90;;;;;;6217930;23;20442;-72
2023/09/22 07:09:44;;;;;;;2.00;1.33;;;20.20;99.90;;;;;;6242129;23;20112;-73
2023/09/22 07:12:30;;;;;;;2.15;1.25;;;20.30;99.90;;;;;;6240544;23;20054;-75
2023/09/22 07:15:17;;;;;;;3.28;1.55;;;20.30;99.90;;;;;;6243920;22;20290;-75
2023/09/22 07:18:04;;;;;;;2.33;1.30;;;20.40;99.90;;;;;;6232477;23;20020;-75
2023/09/22 07:20:51;;;;;;;3.05;1.52;;;20.40;99.90;;;;;;6240980;23;20011;-75
2023/09/22 07:23:37;;;;;;;5.97;1.70;;;20.40;99.90;;;;;;6241645;23;20020;-75
2023/09/22 07:26:23;;;;;;;3.28;1.60;;;20.40;99.90;;;;;;6241250;23;20058;-74
2023/09/22 07:29:09;;;;;;;2.58;1.30;;;20.40;99.90;;;;;;6242120;23;20030;-75
2023/09/22 07:31:55;;;;;;;2.28;1.50;;;20.40;99.90;;;;;;6240429;23;20396;-75
2023/09/22 07:34:41;;;;;;;2.03;1.23;;;20.40;99.90;;;;;;6241122;23;20095;-76
2023/09/22 07:37:27;;;;;;;2.95;1.42;;;20.40;99.90;;;;;;6240303;23;20046;-77
2023/09/22 07:40:14;;;;;;;2.83;1.50;;;20.40;99.90;;;;;;6242884;23;20413;-77
2023/09/22 07:43:00;;;;;;;2.55;1.48;;;20.40;99.90;;;;;;6240890;23;20012;-77
2023/09/22 07:45:47;;;;;;;4.65;1.42;;;20.40;99.90;;;;;;6241702;23;20488;-75
2023/09/22 07:48:35;;;;;;;4.45;1.60;;;20.50;99.90;;;;;;6243024;23;20015;-76
2023/09/22 07:51:22;;;;;;;4.18;1.30;;;20.40;99.90;;;;;;6240383;23;20465;-76
2023/09/22 07:54:09;;;;;;;2.20;1.45;;;20.50;99.90;;;;;;6218742;23;20012;-75
2023/09/22 07:56:55;;;;;;;3.58;1.40;;;20.50;99.90;;;;;;6240858;22;20434;-77
2023/09/22 07:59:41;;;;;;;3.83;2.83;;;20.50;99.90;;;;;;6243202;22;20008;-77
2023/09/22 08:02:27;;;;;;;4.53;1.88;;;20.50;99.90;;;;;;6240599;23;20515;-74
2023/09/22 08:05:16;;;;;;;3.65;2.28;;;20.50;99.90;;;;;;6241925;23;20020;-76
2023/09/22 08:08:04;;;;;;;2.08;1.48;;;20.50;99.90;;;;;;6239853;23;20413;-77
2023/09/22 08:10:50;;;;;;;2.88;1.70;;;20.50;99.90;;;;;;6241106;23;20060;-76
2023/09/22 08:13:36;;;;;;;3.70;1.60;;;20.60;99.90;;;;;;6239776;23;20015;-71
2023/09/22 08:16:23;;;;;;;4.95;1.88;;;20.60;99.90;;;;;;6239969;23;20071;-75
2023/09/22 08:19:11;;;;;;;2.33;1.30;;;20.60;99.90;;;;;;6241671;23;20105;-75
2023/09/22 08:21:57;;;;;;;2.55;1.75;;;20.60;99.90;;;;;;6241683;23;20468;-74
2023/09/22 08:24:43;;;;;;;2.70;1.70;;;20.60;99.90;;;;;;6239912;23;20015;-73
2023/09/22 08:27:29;;;;;;;2.17;1.70;;;20.60;99.90;;;;;;6240904;23;20091;-73
2023/09/22 08:30:16;;;;;;;2.95;1.60;;;20.60;99.90;;;;;;6240796;23;20020;-72
2023/09/22 08:33:02;;;;;;;4.20;1.67;;;20.60;99.90;;;;;;6239915;23;20074;-74
2023/09/22 08:35:49;;;;;;;2.70;1.55;;;20.60;99.90;;;;;;6238682;23;20036;-72
2023/09/22 08:38:35;;;;;;;2.92;1.52;;;20.60;99.90;;;;;;6241037;23;20046;-73
2023/09/22 08:41:23;;;;;;;3.25;1.80;;;20.60;99.90;;;;;;6240233;23;20011;-73
2023/09/22 08:44:09;;;;;;;3.60;1.92;;;20.60;99.90;;;;;;6242105;23;20016;-73
2023/09/22 08:46:57;;;;;;;4.00;1.98;;;20.70;99.90;;;;;;6239759;23;20008;-73
2023/09/22 08:49:43;;;;;;;3.08;1.58;;;20.70;99.90;;;;;;6241608;23;20019;-73
2023/09/22 08:52:29;;;;;;;2.58;1.58;;;20.70;99.90;;;;;;6241274;23;20019;-72
2023/09/22 08:55:15;;;;;;;1.75;1.27;;;20.70;99.90;;;;;;6241883;22;20507;-73
2023/09/22 08:58:01;;;;;;;2.45;1.73;;;20.70;99.90;;;;;;6239429;23;20011;-74
2023/09/22 09:00:51;;;;;;;1.75;1.20;;;20.70;99.90;;;;;;6242279;23;20090;-73
2023/09/22 09:03:38;;;;;;;2.17;1.40;;;20.70;99.90;;;;;;6238868;23;20024;-73
2023/09/22 09:06:24;;;;;;;2.15;1.38;;;20.70;99.90;;;;;;6242152;23;20001;-74
2023/09/22 09:09:12;;;;;;;2.75;1.52;;;20.70;99.90;;;;;;6238372;23;20434;-77
2023/09/22 09:11:59;;;;;;;2.55;1.23;;;20.70;99.90;;;;;;6238767;23;20138;-77
2023/09/22 09:14:47;;;;;;;3.30;1.48;;;20.60;99.90;;;;;;6240807;23;20315;-77
2023/09/22 09:17:33;;;;;;;2.05;1.23;;;20.60;99.90;;;;;;6242205;23;20874;-75
2023/09/22 09:20:18;;;;;;;3.78;1.25;;;20.60;99.90;;;;;;6242999;23;20044;-76
2023/09/22 09:23:18;;;;;;;2.05;1.30;;;20.60;99.90;;;;;;6243995;23;20422;-77
2023/09/22 09:26:04;;;;;;;3.25;1.52;;;20.60;99.90;;;;;;6242522;23;20079;-76
2023/09/22 09:28:50;;;;;;;3.08;1.70;;;20.60;99.90;;;;;;6243862;22;20019;-77
2023/09/22 09:31:45;;;;;;;2.05;1.35;;;20.60;99.90;;;;;;6241273;23;20036;-76
2023/09/22 09:34:40;;;;;;;;;;;20.50;99.90;;;;;;6242298;23;20438;-77
2023/09/22 09:37:26;;;;;;;2.03;1.15;;;20.50;99.90;;;;;;6220788;23;20288;-76
2023/09/22 09:40:14;;;;;;;11.50;2.28;;;20.40;99.90;;;;;;6241177;23;20055;-76
2023/09/22 09:43:01;;;;;;;2.50;1.50;;;20.40;99.90;;;;;;6240609;23;20016;-75
2023/09/22 09:45:56;;;;;;;8.20;2.05;;;20.40;99.90;;;;;;6243095;23;20012;-76
2023/09/22 09:48:45;;;;;;;5.43;2.83;;;20.40;99.90;;;;;;6241231;23;20020;-76
2023/09/22 09:51:38;;;;;;;3.92;1.75;;;20.40;99.90;;;;;;6242883;23;20346;-76
2023/09/22 09:54:25;;;;;;;5.50;2.05;;;20.40;99.90;;;;;;6241692;23;20012;-77
2023/09/22 09:57:12;;;;;;;4.53;2.20;;;20.40;99.90;;;;;;6241171;22;20411;-76
2023/09/22 09:59:58;;;;;;;3.35;1.92;;;20.50;99.90;;;;;;6242781;23;20430;-77
2023/09/22 10:02:49;;;;;;;3.08;1.58;;;20.50;99.90;;;;;;6219092;23;20035;-76
2023/09/22 10:05:36;;;;;;;4.45;2.22;;;20.50;99.90;;;;;;6241346;23;20019;-76
2023/09/22 10:08:25;;;;;;;3.20;1.63;;;20.50;99.90;;;;;;6241425;23;20458;-76
2023/09/22 10:11:13;;;;;;;6.80;2.28;;;20.50;99.90;;;;;;6240925;23;20095;-76
2023/09/22 10:13:59;;;;;;;4.93;1.90;;;20.50;99.90;;;;;;6218739;23;20012;-75
2023/09/22 10:16:45;;;;;;;7.75;2.10;;;20.50;99.90;;;;;;6243627;22;20087;-76
2023/09/22 10:19:41;;;;;;;5.10;2.20;;;20.50;99.90;;;;;;6242191;23;20050;-76
2023/09/22 10:22:29;;;;;;;3.42;1.80;;;20.50;99.90;;;;;;6242164;23;20437;-76
2023/09/22 10:25:15;;;;;;;4.35;2.58;;;20.50;99.90;;;;;;6240683;23;20047;-77
2023/09/22 10:28:31;;;;;;;3.80;2.20;;;20.50;99.90;;;;;;6217859;23;20039;-77
2023/09/22 10:31:17;;;;;;;2.90;1.75;;;20.50;99.90;;;;;;6122209;23;20014;-77
2023/09/22 10:34:55;;;;;;;8.25;2.38;;;20.50;99.90;;;;;;6118457;23;20046;-76
2023/09/22 10:37:59;;;;;;;5.03;1.83;;;20.50;99.90;;;;;;6061703;23;20513;-75
2023/09/22 10:41:11;;;;;;;2.53;1.60;;;20.50;99.90;;;;;;6061250;23;20015;-76
2023/09/22 10:43:59;;;;;;;4.03;1.30;;;20.60;99.90;;;;;;6061352;23;20076;-77
2023/09/22 10:46:57;;;;;;;2.08;1.42;;;20.60;99.90;;;;;;6090997;23;20014;-76
2023/09/22 10:49:43;;;;;;;3.50;1.60;;;20.60;99.90;;;;;;6092081;23;20014;-77
2023/09/22 10:52:29;;;;;;;5.93;1.65;;;20.60;99.90;;;;;;6090484;23;20033;-76
2023/09/22 10:55:24;;;;;;;6.97;1.92;;;20.60;99.90;;;;;;6091277;23;20021;-76
2023/09/22 10:58:21;;;;;;;2.90;1.30;;;20.60;99.90;;;;;;6092318;23;20490;-78
2023/09/22 11:01:08;;;;;;;4.47;1.70;;;20.60;99.90;;;;;;6091859;23;20010;-77
2023/09/22 11:03:56;;;;;;;3.70;2.00;;;20.60;99.90;;;;;;6091484;23;20364;-77
2023/09/22 11:06:44;;;;;;;4.45;1.88;;;20.60;99.90;;;;;;6100757;23;20428;-77
2023/09/22 11:09:34;;;;;;;4.20;2.08;;;20.50;99.90;;;;;;6149035;23;20036;-76
2023/09/22 11:12:20;;;;;;;4.70;2.03;;;20.50;99.90;;;;;;6167664;23;20095;-76
2023/09/22 11:15:07;;;;;;;3.75;2.13;;;20.40;99.90;;;;;;6241810;23;20019;-76
2023/09/22 11:17:53;;;;;;;3.53;2.22;;;20.40;99.90;;;;;;6241634;23;20412;-76
2023/09/22 11:20:39;;;;;;;4.88;2.13;;;20.40;99.90;;;;;;6242836;23;20442;-77
2023/09/22 11:23:26;;;;;;;6.28;2.40;;;20.40;99.90;;;;;;6241171;23;20442;-78
2023/09/22 11:26:13;;;;;;;3.67;2.20;;;20.40;99.90;;;;;;6239829;23;20341;-78
2023/09/22 11:29:01;;;;;;;4.15;2.05;;;20.40;99.90;;;;;;6241066;23;20012;-80
2023/09/22 11:31:50;;;;;;;4.82;2.33;;;20.40;99.90;;;;;;6239521;23;20008;-79
2023/09/22 11:34:46;;;;;;;5.10;2.22;;;20.40;99.90;;;;;;6241444;23;20101;-79
2023/09/22 11:37:32;;;;;;;4.43;1.90;;;20.40;99.90;;;;;;6240253;23;20026;-76
2023/09/22 11:40:20;;;;;;;3.97;1.60;;;20.40;99.90;;;;;;6242552;22;20043;-79
2023/09/22 11:43:06;;;;;;;3.40;1.60;;;20.40;99.90;;;;;;6217681;23;20016;-80
2023/09/22 11:46:26;;;;;;;3.30;1.90;;;20.40;99.90;;;;;;6242571;22;20016;-79
2023/09/22 11:49:13;;;;;;;3.28;1.40;;;20.40;99.90;;;;;;6241499;23;20457;-79
2023/09/22 11:51:59;;;;;;;3.70;1.83;;;20.50;99.90;;;;;;6241162;23;20012;-77
2023/09/22 11:54:44;;;;;;;3.25;1.73;;;20.50;99.90;;;;;;6241795;23;20038;-80
2023/09/22 11:57:30;;;;;;;2.65;1.60;;;20.60;99.90;;;;;;6242166;22;20016;-75
2023/09/22 12:00:20;;;;;;;2.92;1.65;;;20.60;99.90;;;;;;6242946;23;20004;-78
2023/09/22 12:03:06;;;;;;;3.55;1.80;;;20.70;99.90;;;;;;6241150;23;20015;-76
2023/09/22 12:05:53;;;;;;;3.45;1.35;;;20.70;99.90;;;;;;6263001;23;20020;-81
2023/09/22 12:08:39;;;;;;;3.70;1.58;;;20.70;99.90;;;;;;6266294;23;20000;-81
2023/09/22 12:11:25;;;;;;;3.22;1.30;;;20.70;99.90;;;;;;6266835;23;20016;-77
2023/09/22 12:14:11;;;;;;;2.42;1.40;;;20.80;99.90;;;;;;6265309;23;20040;-76
2023/09/22 12:16:57;;;;;;;3.47;1.35;;;20.80;99.90;;;;;;6262513;23;20076;-78
2023/09/22 12:19:43;;;;;;;7.07;1.98;;;20.80;99.90;;;;;;6252821;23;20442;-80
2023/09/22 12:22:29;;;;;;;2.60;1.60;;;20.90;99.90;;;;;;6240557;23;20031;-71
2023/09/22 12:25:15;;;;;;;3.42;1.30;;;20.90;99.90;;;;;;6241280;23;20016;-71
2023/09/22 12:28:01;;;;;;;2.92;1.65;;;20.90;99.90;;;;;;6239937;23;20011;-73
2023/09/22 12:30:49;;;;;;;3.17;1.70;;;20.90;99.90;;;;;;6239584;23;20367;-81
2023/09/22 12:33:37;;;;;;;2.78;1.40;;;20.90;99.90;;;;;;6215159;23;20005;-82
2023/09/22 12:36:23;;;;;;;3.20;1.95;;;20.90;99.90;;;;;;6238920;23;20018;-81
2023/09/22 12:39:11;;;;;;;3.45;1.60;;;20.90;99.90;;;;;;6239460;23;20030;-81
2023/09/22 12:41:57;;;;;;;5.15;1.75;;;20.90;99.90;;;;;;6217144;23;20012;-81
2023/09/22 12:44:43;;;;;;;3.28;1.85;;;20.90;99.90;;;;;;6241907;23;20031;-81
2023/09/22 12:47:29;;;;;;;3.05;1.92;;;20.80;99.90;;;;;;6241730;23;20004;-81
2023/09/22 12:50:15;;;;;;;3.58;1.90;;;20.80;99.90;;;;;;6239774;23;20066;-79
2023/09/22 12:53:02;;;;;;;3.05;1.60;;;20.70;99.90;;;;;;6240092;23;20324;-80
2023/09/22 12:55:49;;;;;;;3.22;1.90;;;20.70;99.90;;;;;;6242513;22;20012;-80
2023/09/22 12:58:35;;;;;;;2.30;1.70;;;20.70;99.90;;;;;;6241002;23;20013;-81
2023/09/22 13:01:21;;;;;;;2.72;1.55;;;20.70;99.90;;;;;;6243536;22;20004;-80
2023/09/22 13:04:07;;;;;;;5.03;2.35;;;20.60;99.90;;;;;;6221529;23;20020;-79
2023/09/22 13:06:53;;;;;;;3.40;1.70;;;20.60;99.90;;;;;;6243846;22;20353;-79
2023/09/22 13:09:39;;;;;;;3.35;1.88;;;20.60;99.90;;;;;;6243346;23;20012;-80
2023/09/22 13:12:25;;;;;;;3.15;2.28;;;20.60;99.90;;;;;;6243310;22;20039;-81
2023/09/22 13:15:11;;;;;;;2.45;1.33;;;20.60;99.90;;;;;;6243627;23;20458;-81
2023/09/22 13:17:57;;;;;;;2.35;1.60;;;20.50;99.90;;;;;;6243319;23;20074;-80
2023/09/22 13:20:44;;;;;;;4.05;1.88;;;20.50;99.90;;;;;;6244465;22;20036;-81
2023/09/22 13:23:30;;;;;;;2.42;1.52;;;20.50;99.90;;;;;;6241637;23;20020;-80
2023/09/22 13:26:20;;;;;;;5.80;1.50;;;20.50;99.90;;;;;;6243113;23;20012;-78
2023/09/22 13:29:06;;;;;;;8.07;2.35;;;20.40;99.90;;;;;;6243175;23;20517;-77
2023/09/22 13:31:52;;;;;;;3.70;2.10;;;20.50;99.90;;;;;;6240824;23;20409;-80
2023/09/22 13:34:38;;;;;;;3.60;1.75;;;20.50;99.90;;;;;;6240673;23;20022;-79
2023/09/22 13:37:24;;;;;;;4.97;1.90;;;20.50;99.90;;;;;;6241905;23;20042;-80
2023/09/22 13:40:11;;;;;;;3.88;2.05;;;20.50;99.90;;;;;;6240745;23;20380;-79
2023/09/22 13:42:58;;;;;;;2.97;1.98;;;20.50;99.90;;;;;;6240593;23;20358;-80
2023/09/22 13:45:44;;;;;;;2.70;1.77;;;20.50;99.90;;;;;;6240925;23;20031;-79
2023/09/22 13:48:30;;;;;;;4.03;1.85;;;20.50;99.90;;;;;;6243199;22;20100;-79
2023/09/22 13:51:16;;;;;;;2.65;1.73;;;20.40;99.90;;;;;;6241609;23;20012;-80
2023/09/22 13:54:02;;;;;;;4.35;1.80;;;20.50;99.90;;;;;;6240966;23;20015;-79
2023/09/22 13:56:48;;;;;;;3.10;1.95;;;20.40;99.90;;;;;;6242686;22;20027;-80
2023/09/22 13:59:34;;;;;;;2.53;1.63;;;20.40;99.90;;;;;;6241742;23;20023;-77
2023/09/22 14:02:20;;;;;;;3.80;1.52;;;20.50;99.90;;;;;;6242408;23;20302;-80
2023/09/22 14:05:07;;;;;;;3.20;1.52;;;20.40;99.90;;;;;;6219887;23;20016;-80
2023/09/22 14:07:53;;;;;;;2.80;1.48;;;20.40;99.90;;;;;;6241972;23;20008;-80
2023/09/22 14:10:39;;;;;;;3.08;1.75;;;20.40;99.90;;;;;;6223884;23;20450;-79
2023/09/22 14:13:26;;;;;;;2.65;1.50;;;20.40;99.90;;;;;;6225017;23;20078;-81
2023/09/22 14:16:13;;;;;;;2.47;1.55;;;20.40;99.90;;;;;;6246075;23;20023;-79
2023/09/22 14:18:59;;;;;;;4.13;1.85;;;20.30;99.90;;;;;;6250959;23;20012;-80
2023/09/22 14:21:46;;;;;;;3.20;1.88;;;20.30;99.90;;;;;;6250265;23;20008;-79
2023/09/22 14:24:32;;;;;;;5.13;2.00;;;20.30;99.90;;;;;;6240085;23;20024;-77
2023/09/22 14:27:18;;;;;;;4.40;1.92;;;20.20;99.90;;;;;;6240298;23;20008;-79
2023/09/22 14:30:07;;;;;;;2.72;1.80;;;20.20;99.90;;;;;;6238974;23;20083;-79
2023/09/22 14:32:54;;;;;;;4.55;2.00;;;20.20;99.90;;;;;;6241778;23;20008;-77